Time;durP1;ratioP1;P1;durP2;ratioP2;P2;SDS_P1;SDS_P2;PMS_P1;PMS_P2;Temp;Humidity;BMP_temperature;BMP_pressure;BME280_temperature;BME280_humidity;BME280_pressure;Samples;Min_cycle;Max_cycle;Signal;HPM_P1;HPM_P2
2022/01/27 00:05:31;;;;;;;16.77;7.38;;;7.00;93.30;;;;;;4958870;28;20631;-87
2022/01/27 00:08:22;;;;;;;16.80;7.53;;;7.00;93.20;;;;;;4958114;28;20195;-86
2022/01/27 00:13:15;;;;;;;16.30;7.47;;;7.00;93.30;;;;;;4966646;28;20360;-87
2022/01/27 00:15:46;;;;;;;17.40;7.18;;;7.00;93.40;;;;;;4936647;28;21038;-86
2022/01/27 00:18:17;;;;;;;17.95;7.88;;;7.00;93.30;;;;;;4958443;28;20042;-87
2022/01/27 00:20:47;;;;;;;16.50;7.20;;;7.00;93.20;;;;;;4947291;28;20049;-87
2022/01/27 00:23:13;;;;;;;14.73;6.93;;;7.00;93.40;;;;;;4966980;28;20019;-87
2022/01/27 00:25:39;;;;;;;17.33;8.20;;;7.00;93.40;;;;;;4965527;28;20570;-87
2022/01/27 00:28:07;;;;;;;17.80;8.30;;;7.10;93.40;;;;;;4963363;28;20106;-87
2022/01/27 00:30:34;;;;;;;13.23;6.43;;;7.10;93.20;;;;;;4959910;28;22812;-87
2022/01/27 00:33:01;;;;;;;14.70;6.70;;;7.10;93.40;;;;;;4977729;28;22423;-87
2022/01/27 00:35:26;;;;;;;19.42;7.63;;;7.10;93.40;;;;;;4951798;28;20023;-87
2022/01/27 00:37:52;;;;;;;14.53;6.40;;;7.00;93.10;;;;;;4969110;28;20293;-86
2022/01/27 00:40:17;;;;;;;16.08;7.30;;;7.10;93.20;;;;;;4969204;28;20441;-87
2022/01/27 00:42:45;;;;;;;15.17;7.07;;;7.10;93.30;;;;;;4974578;28;20105;-88
2022/01/27 00:45:10;;;;;;;15.80;7.75;;;7.10;93.00;;;;;;4964771;28;20035;-87
2022/01/27 00:47:36;;;;;;;16.80;7.80;;;7.10;92.90;;;;;;4935821;28;20391;-87
2022/01/27 00:50:02;;;;;;;14.70;7.00;;;7.10;93.20;;;;;;4940318;28;20298;-87
2022/01/27 00:52:41;;;;;;;16.48;8.15;;;7.10;93.10;;;;;;4963154;28;20381;-87
2022/01/27 00:55:09;;;;;;;15.68;7.55;;;7.10;92.70;;;;;;4947773;28;20300;-87
2022/01/27 01:00:09;;;;;;;15.32;6.95;;;7.20;93.20;;;;;;4989234;28;20481;-87
2022/01/27 01:07:38;;;;;;;18.60;8.18;;;7.10;93.00;;;;;;4980763;28;20031;-86
2022/01/27 01:15:35;;;;;;;15.63;6.65;;;7.20;93.10;;;;;;5005535;28;20113;-88
2022/01/27 01:20:48;;;;;;;13.07;6.00;;;7.20;93.20;;;;;;4987957;28;20031;-88
2022/01/27 01:31:32;;;;;;;16.00;6.07;;;7.20;93.10;;;;;;4980976;28;20045;-86
2022/01/27 01:37:01;;;;;;;15.90;7.28;;;7.20;93.20;;;;;;4932237;28;20038;-88
2022/01/27 01:39:29;;;;;;;13.70;6.75;;;7.20;93.10;;;;;;4966458;28;20039;-86
2022/01/27 01:41:56;;;;;;;13.02;6.07;;;7.20;93.20;;;;;;4953357;28;20160;-87
2022/01/27 01:44:23;;;;;;;15.27;7.57;;;7.20;93.40;;;;;;4966202;28;20042;-87
2022/01/27 01:46:49;;;;;;;18.07;8.20;;;7.20;93.20;;;;;;4969081;28;20053;-87
2022/01/27 01:49:15;;;;;;;17.20;7.28;;;7.10;92.90;;;;;;4960276;28;20030;-87
2022/01/27 01:51:43;;;;;;;15.88;7.18;;;7.10;92.90;;;;;;4978427;28;20126;-87
2022/01/27 01:54:09;;;;;;;15.10;7.32;;;7.10;93.00;;;;;;4982561;28;20022;-87
2022/01/27 01:56:36;;;;;;;15.52;6.90;;;7.20;93.10;;;;;;4960901;28;20081;-87
2022/01/27 01:59:03;;;;;;;16.67;7.30;;;7.20;93.10;;;;;;4989744;28;20030;-87
2022/01/27 02:01:29;;;;;;;18.80;8.00;;;7.20;93.10;;;;;;4978049;28;20519;-88
2022/01/27 02:03:55;;;;;;;16.35;7.13;;;7.20;93.10;;;;;;4985199;28;20062;-89
2022/01/27 02:06:31;;;;;;;13.77;6.10;;;7.20;93.30;;;;;;4966251;28;20042;-88
2022/01/27 02:19:54;;;;;;;14.07;5.72;;;7.20;93.10;;;;;;4983030;28;20310;-88
2022/01/27 02:22:21;;;;;;;14.50;5.95;;;7.20;93.20;;;;;;4960289;28;20500;-88
2022/01/27 02:24:47;;;;;;;14.35;6.43;;;7.20;93.20;;;;;;4936863;28;20086;-88
2022/01/27 02:27:14;;;;;;;17.00;7.13;;;7.20;93.60;;;;;;4968252;28;20325;-89
2022/01/27 02:29:40;;;;;;;16.40;7.07;;;7.20;93.20;;;;;;4961108;28;20441;-89
2022/01/27 02:32:07;;;;;;;15.63;6.60;;;7.20;93.30;;;;;;4963178;28;20027;-89
2022/01/27 02:34:32;;;;;;;14.48;6.25;;;7.20;93.40;;;;;;4959215;28;20035;-88
2022/01/27 02:36:58;;;;;;;14.73;6.68;;;7.20;93.30;;;;;;4988618;28;20513;-89
2022/01/27 02:39:24;;;;;;;17.17;7.67;;;7.30;93.50;;;;;;4975413;28;20023;-89
2022/01/27 02:41:50;;;;;;;15.02;7.10;;;7.20;93.50;;;;;;4962262;28;20031;-88
2022/01/27 02:44:29;;;;;;;14.80;6.23;;;7.30;93.40;;;;;;4954211;28;20402;-88
2022/01/27 02:46:55;;;;;;;13.60;6.13;;;7.30;93.40;;;;;;5009171;28;20609;-89
2022/01/27 02:49:22;;;;;;;14.77;6.93;;;7.30;93.50;;;;;;4962311;28;20038;-89
2022/01/27 02:51:47;;;;;;;15.77;6.72;;;7.30;93.40;;;;;;4959328;28;20046;-88
2022/01/27 02:54:13;;;;;;;19.30;8.00;;;7.40;93.30;;;;;;4966725;28;20070;-88
2022/01/27 02:56:44;;;;;;;13.55;6.47;;;7.40;93.30;;;;;;4949904;28;20030;-87
2022/01/27 02:59:10;;;;;;;18.60;7.80;;;7.40;93.50;;;;;;4991761;28;20022;-88
2022/01/27 03:01:36;;;;;;;15.05;6.43;;;7.50;93.10;;;;;;4966556;28;20026;-89
2022/01/27 03:04:02;;;;;;;16.13;7.07;;;7.40;93.30;;;;;;4960406;28;20212;-88
2022/01/27 03:06:28;;;;;;;16.15;6.78;;;7.40;93.10;;;;;;4966869;28;20125;-89
2022/01/27 03:08:54;;;;;;;15.20;6.50;;;7.50;93.30;;;;;;4955561;28;20141;-88
2022/01/27 03:11:53;;;;;;;13.70;5.67;;;7.50;93.30;;;;;;4947838;28;20117;-89
2022/01/27 03:14:22;;;;;;;16.35;6.50;;;7.40;93.10;;;;;;4977809;28;20487;-87
2022/01/27 03:16:49;;;;;;;17.08;6.97;;;7.50;93.30;;;;;;4995488;28;20661;-87
2022/01/27 03:19:15;;;;;;;13.73;6.20;;;7.50;93.10;;;;;;4966144;28;20122;-88
2022/01/27 03:21:41;;;;;;;13.30;5.50;;;7.50;93.10;;;;;;4948520;28;20599;-89
2022/01/27 03:24:07;;;;;;;16.63;7.13;;;7.50;93.20;;;;;;4945648;28;23402;-89
2022/01/27 03:26:33;;;;;;;12.43;6.07;;;7.50;93.20;;;;;;4961183;28;20030;-89
2022/01/27 03:29:00;;;;;;;14.30;5.90;;;7.50;93.30;;;;;;4948505;28;20132;-89
2022/01/27 03:31:26;;;;;;;15.17;6.77;;;7.50;93.40;;;;;;4962839;28;20035;-88
2022/01/27 03:33:52;;;;;;;20.25;7.60;;;7.50;93.30;;;;;;4965815;28;20575;-88
2022/01/27 03:36:18;;;;;;;16.65;7.25;;;7.50;93.60;;;;;;4962270;28;20039;-89
2022/01/27 03:38:44;;;;;;;14.77;6.40;;;7.50;93.30;;;;;;4951508;28;20503;-88
2022/01/27 03:41:11;;;;;;;13.75;5.72;;;7.50;93.40;;;;;;4985838;28;20042;-88
2022/01/27 03:43:38;;;;;;;17.03;7.20;;;7.50;93.50;;;;;;4938213;28;20035;-89
2022/01/27 03:46:05;;;;;;;14.13;5.82;;;7.50;93.30;;;;;;4961984;28;20049;-88
2022/01/27 03:48:31;;;;;;;16.20;6.93;;;7.50;93.30;;;;;;4957367;28;20031;-88
2022/01/27 03:50:56;;;;;;;17.80;7.70;;;7.50;93.10;;;;;;4960390;28;20424;-89
2022/01/27 03:53:22;;;;;;;19.40;7.57;;;7.50;93.10;;;;;;4963076;28;20038;-89
2022/01/27 03:55:48;;;;;;;16.55;7.43;;;7.50;93.00;;;;;;4940416;28;20200;-89
2022/01/27 03:58:14;;;;;;;17.83;7.93;;;7.50;93.00;;;;;;4981177;28;20095;-88
2022/01/27 04:00:39;;;;;;;15.65;7.15;;;7.40;92.70;;;;;;4921859;28;20171;-87
2022/01/27 04:03:08;;;;;;;15.40;6.93;;;7.40;92.90;;;;;;4968215;28;20110;-88
2022/01/27 04:05:42;;;;;;;18.67;7.68;;;7.40;93.10;;;;;;4963997;28;20468;-89
2022/01/27 04:08:09;;;;;;;17.08;7.38;;;7.40;93.20;;;;;;4970968;28;20030;-89
2022/01/27 04:10:37;;;;;;;17.33;7.28;;;7.40;93.00;;;;;;4990069;28;20401;-89
2022/01/27 04:13:05;;;;;;;14.52;6.07;;;7.40;93.00;;;;;;4993796;28;20287;-89
2022/01/27 04:15:31;;;;;;;16.97;6.93;;;7.40;93.20;;;;;;4943943;28;20027;-89
2022/01/27 04:17:57;;;;;;;17.63;7.20;;;7.40;93.20;;;;;;4968372;28;20543;-89
2022/01/27 04:20:22;;;;;;;15.95;6.43;;;7.40;93.10;;;;;;4966131;28;20066;-89
2022/01/27 04:22:49;;;;;;;17.17;7.03;;;7.40;93.10;;;;;;4957191;28;20628;-88
2022/01/27 04:25:15;;;;;;;15.00;6.50;;;7.30;93.10;;;;;;4972927;28;20046;-89
2022/01/27 04:27:48;;;;;;;15.75;7.00;;;7.40;93.10;;;;;;4963975;28;20027;-88
2022/01/27 04:30:19;;;;;;;16.05;6.95;;;7.30;93.00;;;;;;4951860;28;20030;-89
2022/01/27 04:32:51;;;;;;;16.50;6.80;;;7.30;93.00;;;;;;4950118;28;20023;-89
2022/01/27 04:35:20;;;;;;;16.55;6.40;;;7.30;93.10;;;;;;4965547;28;20489;-88
2022/01/27 04:37:58;;;;;;;18.90;8.23;;;7.30;93.20;;;;;;4964123;28;20058;-88
2022/01/27 04:40:31;;;;;;;18.70;7.85;;;7.20;93.20;;;;;;4968500;28;20053;-88
2022/01/27 04:43:05;;;;;;;17.20;7.18;;;7.30;93.20;;;;;;4988419;28;20244;-89
2022/01/27 04:45:41;;;;;;;17.53;7.97;;;7.20;93.20;;;;;;4980207;28;20020;-89
2022/01/27 04:48:13;;;;;;;17.60;7.80;;;7.20;93.30;;;;;;4973488;28;20037;-88
2022/01/27 04:50:39;;;;;;;19.58;8.43;;;7.20;93.30;;;;;;4968980;28;20039;-88
2022/01/27 04:53:08;;;;;;;18.83;8.32;;;7.20;93.20;;;;;;4963833;28;20542;-88
2022/01/27 04:55:34;;;;;;;16.65;6.95;;;7.20;93.10;;;;;;4968157;28;20594;-88
2022/01/27 04:58:19;;;;;;;18.00;7.87;;;7.20;93.20;;;;;;4989140;28;20558;-89
2022/01/27 05:00:45;;;;;;;21.30;9.05;;;7.10;93.00;;;;;;4948156;28;20386;-88
2022/01/27 05:03:20;;;;;;;23.48;9.45;;;7.10;92.80;;;;;;4971172;28;20443;-88
2022/01/27 05:05:46;;;;;;;16.73;6.80;;;7.10;93.10;;;;;;4963255;28;20085;-87
2022/01/27 05:08:18;;;;;;;22.83;9.07;;;7.10;93.10;;;;;;4961496;28;20571;-88
2022/01/27 05:10:52;;;;;;;25.10;10.00;;;7.00;93.00;;;;;;5003658;28;20132;-88
2022/01/27 05:13:20;;;;;;;21.10;8.60;;;7.00;93.00;;;;;;4946363;28;20403;-88
2022/01/27 05:15:45;;;;;;;19.53;8.23;;;7.00;93.10;;;;;;4979617;28;20121;-89
2022/01/27 05:18:12;;;;;;;23.05;9.77;;;7.00;93.10;;;;;;4995395;28;20053;-89
2022/01/27 05:20:39;;;;;;;21.92;8.98;;;7.00;93.20;;;;;;4963292;28;20031;-89
2022/01/27 05:23:04;;;;;;;19.97;8.00;;;7.00;93.10;;;;;;4993040;28;20475;-89
2022/01/27 05:25:30;;;;;;;18.98;7.80;;;7.00;93.20;;;;;;4992709;28;20031;-88
2022/01/27 05:27:56;;;;;;;18.85;7.72;;;6.90;93.20;;;;;;4955193;28;20524;-89
2022/01/27 05:30:22;;;;;;;19.23;7.77;;;6.90;93.50;;;;;;4959751;28;20121;-88
2022/01/27 05:32:47;;;;;;;19.20;8.00;;;6.90;93.20;;;;;;4940309;28;20089;-88
2022/01/27 05:35:13;;;;;;;19.47;7.90;;;6.90;93.70;;;;;;4967306;28;20101;-88
2022/01/27 05:37:38;;;;;;;20.60;8.07;;;6.90;93.30;;;;;;4986032;28;20135;-88
2022/01/27 05:40:05;;;;;;;19.17;7.73;;;6.90;93.40;;;;;;4953250;28;20270;-89
2022/01/27 05:42:31;;;;;;;17.75;6.95;;;6.80;93.40;;;;;;4964493;28;20034;-89
2022/01/27 05:44:56;;;;;;;18.87;7.93;;;6.90;93.50;;;;;;4973065;28;20485;-88
2022/01/27 05:47:22;;;;;;;18.55;7.90;;;6.80;93.40;;;;;;4945826;28;20031;-87
2022/01/27 05:49:48;;;;;;;19.57;8.17;;;6.80;93.50;;;;;;4987407;28;20058;-88
2022/01/27 05:52:14;;;;;;;23.52;9.18;;;6.80;93.50;;;;;;4965464;28;20115;-88
2022/01/27 05:54:39;;;;;;;18.73;7.73;;;6.90;93.60;;;;;;4978810;28;20179;-88
2022/01/27 05:57:05;;;;;;;19.60;7.57;;;6.90;93.70;;;;;;4966206;28;20019;-88
2022/01/27 05:59:30;;;;;;;22.07;9.03;;;6.90;93.80;;;;;;4947708;28;20031;-88
2022/01/27 06:01:56;;;;;;;19.47;8.13;;;6.90;93.60;;;;;;4962018;28;20276;-89
2022/01/27 06:04:22;;;;;;;23.27;9.05;;;6.90;93.70;;;;;;4960631;28;20023;-88
2022/01/27 06:06:47;;;;;;;28.63;10.10;;;6.90;93.70;;;;;;4947606;28;20131;-89
2022/01/27 06:09:14;;;;;;;24.02;9.27;;;7.00;93.60;;;;;;4948627;28;20038;-88
2022/01/27 06:11:40;;;;;;;20.58;8.30;;;7.00;93.80;;;;;;4977325;28;20042;-88
2022/01/27 06:14:05;;;;;;;26.43;9.93;;;7.00;93.80;;;;;;4945521;28;20034;-88
2022/01/27 06:16:31;;;;;;;26.93;9.50;;;7.00;93.70;;;;;;4959217;28;20678;-87
2022/01/27 06:18:57;;;;;;;24.20;9.75;;;7.00;93.70;;;;;;4957951;28;20142;-89
2022/01/27 06:21:22;;;;;;;25.10;9.70;;;7.00;93.70;;;;;;4953659;28;20249;-88
2022/01/27 06:23:48;;;;;;;24.98;10.20;;;7.10;93.80;;;;;;4982153;28;20022;-89
2022/01/27 06:26:14;;;;;;;24.25;9.73;;;7.10;93.80;;;;;;4976074;28;20359;-88
2022/01/27 06:28:40;;;;;;;21.77;9.03;;;7.10;93.80;;;;;;4953849;28;20396;-88
2022/01/27 06:31:05;;;;;;;21.05;8.88;;;7.10;93.90;;;;;;4957425;28;20038;-88
2022/01/27 06:33:31;;;;;;;18.00;8.20;;;7.20;94.00;;;;;;4979127;28;20222;-87
2022/01/27 06:35:57;;;;;;;20.20;8.10;;;7.20;94.10;;;;;;4960277;28;20101;-88
2022/01/27 06:38:22;;;;;;;20.93;8.63;;;7.20;94.20;;;;;;4948582;28;20346;-88
2022/01/27 06:40:48;;;;;;;21.58;8.68;;;7.30;94.30;;;;;;4961466;28;20038;-88
2022/01/27 06:43:15;;;;;;;18.83;8.13;;;7.30;94.30;;;;;;4960642;28;20027;-90
2022/01/27 06:45:40;;;;;;;19.83;8.52;;;7.40;94.40;;;;;;4964043;28;20033;-88
2022/01/27 06:48:06;;;;;;;25.38;9.57;;;7.40;94.30;;;;;;4982449;28;20030;-87
2022/01/27 06:50:32;;;;;;;22.10;8.47;;;7.40;94.20;;;;;;4922345;28;20842;-88
2022/01/27 06:52:59;;;;;;;19.30;8.90;;;7.50;94.20;;;;;;4991565;28;20097;-89
2022/01/27 06:55:24;;;;;;;21.15;9.00;;;7.60;94.30;;;;;;4949813;28;20357;-89
2022/01/27 06:57:50;;;;;;;21.27;8.23;;;7.60;94.20;;;;;;4973876;28;20434;-89
2022/01/27 07:00:17;;;;;;;22.70;8.77;;;7.60;94.20;;;;;;4966949;28;20586;-88
2022/01/27 07:02:43;;;;;;;26.97;10.43;;;7.70;94.30;;;;;;4946370;28;20030;-87
2022/01/27 07:05:09;;;;;;;23.75;9.80;;;7.70;94.20;;;;;;4945466;28;20059;-88
2022/01/27 07:07:35;;;;;;;27.60;10.07;;;7.70;94.20;;;;;;4946876;28;20023;-89
2022/01/27 07:10:01;;;;;;;17.92;7.57;;;7.80;94.10;;;;;;4962827;28;20046;-88
2022/01/27 07:12:27;;;;;;;23.07;8.67;;;7.80;94.20;;;;;;4961708;28;20155;-88
2022/01/27 07:14:54;;;;;;;19.48;8.48;;;7.80;94.00;;;;;;4959721;28;20090;-87
2022/01/27 07:17:21;;;;;;;17.38;7.70;;;7.80;94.10;;;;;;4957616;28;20315;-89
2022/01/27 07:19:46;;;;;;;19.63;8.07;;;7.90;94.00;;;;;;4944093;28;20523;-87
2022/01/27 07:22:12;;;;;;;20.47;8.50;;;7.90;94.20;;;;;;4930810;28;20039;-89
2022/01/27 07:24:38;;;;;;;13.38;6.15;;;7.90;94.00;;;;;;4958304;28;20399;-88
2022/01/27 07:27:04;;;;;;;23.93;9.40;;;7.90;94.20;;;;;;4932589;28;20126;-89
2022/01/27 07:29:30;;;;;;;21.75;8.18;;;7.90;94.00;;;;;;4954831;28;20161;-89
2022/01/27 07:31:56;;;;;;;19.97;8.00;;;8.00;94.00;;;;;;4979614;28;20041;-89
2022/01/27 07:34:21;;;;;;;20.57;8.70;;;8.00;94.00;;;;;;4955260;28;20375;-88
2022/01/27 07:36:48;;;;;;;17.75;7.35;;;8.00;94.00;;;;;;4944740;28;20475;-89
2022/01/27 07:39:15;;;;;;;17.30;7.97;;;8.00;94.20;;;;;;4976741;28;20100;-88
2022/01/27 07:41:44;;;;;;;20.88;8.35;;;8.10;94.00;;;;;;4978702;28;20511;-89
2022/01/27 07:44:11;;;;;;;21.30;8.10;;;8.10;94.00;;;;;;4977192;28;20077;-88
2022/01/27 07:46:36;;;;;;;17.60;7.70;;;8.10;94.10;;;;;;4993441;28;20118;-89
2022/01/27 07:49:03;;;;;;;21.27;8.07;;;8.10;94.10;;;;;;4971247;28;20033;-88
2022/01/27 07:51:28;;;;;;;25.90;10.37;;;8.20;94.10;;;;;;4931969;28;20599;-89
2022/01/27 07:53:54;;;;;;;17.17;8.23;;;8.20;94.10;;;;;;4952741;28;20026;-89
2022/01/27 07:56:19;;;;;;;18.50;7.57;;;8.20;94.10;;;;;;4964806;28;20434;-89
2022/01/27 07:58:45;;;;;;;23.60;9.52;;;8.20;94.10;;;;;;4957305;28;20559;-88
2022/01/27 08:01:11;;;;;;;21.27;8.60;;;8.20;94.00;;;;;;4955533;28;20528;-88
2022/01/27 08:03:37;;;;;;;17.70;7.60;;;8.20;94.10;;;;;;4958588;28;20500;-88
2022/01/27 08:06:04;;;;;;;17.35;7.05;;;8.20;94.10;;;;;;4963263;28;20412;-88
2022/01/27 08:08:31;;;;;;;19.42;7.40;;;8.20;94.10;;;;;;4962907;28;20348;-89
2022/01/27 08:10:56;;;;;;;16.95;7.63;;;8.20;94.10;;;;;;4962278;28;20724;-89
2022/01/27 08:13:22;;;;;;;15.83;6.80;;;8.20;94.20;;;;;;4952686;28;20340;-88
2022/01/27 08:15:48;;;;;;;18.13;7.97;;;8.30;94.10;;;;;;4945461;28;20828;-89
2022/01/27 08:18:14;;;;;;;18.95;7.88;;;8.30;94.10;;;;;;4952956;28;20050;-89
2022/01/27 08:20:40;;;;;;;22.37;8.73;;;8.20;94.10;;;;;;4952729;28;20045;-88
2022/01/27 08:23:06;;;;;;;15.68;6.95;;;8.30;94.10;;;;;;4980326;28;20027;-89
2022/01/27 08:25:33;;;;;;;17.55;7.60;;;8.30;94.10;;;;;;4982990;28;20313;-89
2022/01/27 08:28:02;;;;;;;17.27;7.93;;;8.20;94.10;;;;;;4948395;28;20023;-90
2022/01/27 08:30:35;;;;;;;19.23;7.80;;;8.30;94.10;;;;;;4949954;28;20049;-89
2022/01/27 08:33:05;;;;;;;18.77;8.70;;;8.30;94.20;;;;;;4974749;28;20046;-89
2022/01/27 08:35:31;;;;;;;22.10;9.10;;;8.30;94.20;;;;;;4972720;28;20027;-88
2022/01/27 08:37:57;;;;;;;20.45;9.20;;;8.30;94.10;;;;;;4978931;28;20431;-89
2022/01/27 08:40:25;;;;;;;16.57;6.97;;;8.30;94.10;;;;;;4934615;28;20023;-89
2022/01/27 08:42:51;;;;;;;21.75;8.75;;;8.30;94.30;;;;;;4989710;28;20073;-88
2022/01/27 08:45:18;;;;;;;25.33;9.95;;;8.30;94.30;;;;;;4951936;28;20023;-88
2022/01/27 08:47:45;;;;;;;21.38;9.48;;;8.30;94.10;;;;;;4951580;28;20523;-88
2022/01/27 08:50:13;;;;;;;20.30;8.30;;;8.40;94.00;;;;;;4979458;28;20026;-89
2022/01/27 08:52:39;;;;;;;20.15;8.73;;;8.40;94.20;;;;;;4967393;28;20026;-89
2022/01/27 08:55:07;;;;;;;21.50;8.82;;;8.40;94.20;;;;;;4939772;28;20484;-88
2022/01/27 08:57:33;;;;;;;17.55;7.90;;;8.40;94.10;;;;;;4988829;28;20121;-89
2022/01/27 09:00:01;;;;;;;17.13;8.38;;;8.40;94.50;;;;;;4955749;28;20041;-88
2022/01/27 09:02:27;;;;;;;16.67;7.87;;;8.40;94.30;;;;;;4965188;28;20315;-89
2022/01/27 09:04:53;;;;;;;16.60;7.25;;;8.40;94.30;;;;;;4995387;28;20050;-89
2022/01/27 09:07:20;;;;;;;14.20;6.68;;;8.40;94.20;;;;;;4979370;28;20673;-89
2022/01/27 09:09:46;;;;;;;18.55;8.00;;;8.40;94.30;;;;;;4968732;28;20481;-89
2022/01/27 09:12:13;;;;;;;21.47;8.80;;;8.50;94.20;;;;;;4961925;28;20064;-88
2022/01/27 09:14:42;;;;;;;18.67;7.68;;;8.40;94.10;;;;;;4950219;28;20031;-89
2022/01/27 09:17:12;;;;;;;17.45;8.13;;;8.40;94.20;;;;;;4965568;28;20431;-89
2022/01/27 09:19:40;;;;;;;19.20;8.00;;;8.40;94.30;;;;;;4964362;28;20491;-88
2022/01/27 09:22:11;;;;;;;18.45;8.27;;;8.40;94.30;;;;;;4992663;28;20034;-88
2022/01/27 09:24:48;;;;;;;16.77;7.50;;;8.40;94.40;;;;;;5001503;28;20022;-89
2022/01/27 09:27:14;;;;;;;23.65;10.00;;;8.40;94.80;;;;;;4949148;28;20499;-90
2022/01/27 09:29:39;;;;;;;17.48;7.70;;;8.40;94.50;;;;;;4954142;28;20380;-89
2022/01/27 09:32:06;;;;;;;20.00;8.18;;;8.40;94.50;;;;;;4942822;28;20035;-89
2022/01/27 09:34:32;;;;;;;14.57;7.07;;;8.40;94.60;;;;;;4960870;28;20506;-90
2022/01/27 09:37:02;;;;;;;16.88;7.53;;;8.40;94.80;;;;;;4962968;28;20058;-88
2022/01/27 09:39:28;;;;;;;17.40;7.93;;;8.40;94.80;;;;;;4961969;28;20110;-89
2022/01/27 09:41:55;;;;;;;15.10;6.50;;;8.40;94.80;;;;;;4948749;28;20039;-89
2022/01/27 09:44:30;;;;;;;15.73;7.63;;;8.40;94.90;;;;;;4957095;28;20228;-90
2022/01/27 09:46:59;;;;;;;12.17;6.07;;;8.40;94.90;;;;;;4952079;28;20244;-90
2022/01/27 09:49:39;;;;;;;16.33;7.00;;;8.40;94.90;;;;;;4959155;28;20523;-90
2022/01/27 09:52:05;;;;;;;15.25;6.53;;;8.40;95.00;;;;;;4971621;28;20042;-90
2022/01/27 09:54:32;;;;;;;14.23;6.35;;;8.50;95.00;;;;;;4964901;28;20550;-89
2022/01/27 09:56:57;;;;;;;20.90;7.72;;;8.50;95.00;;;;;;4941276;28;20043;-89
2022/01/27 09:59:24;;;;;;;14.97;7.00;;;8.50;95.00;;;;;;4949192;28;20246;-89
2022/01/27 10:01:59;;;;;;;15.15;6.22;;;8.50;95.10;;;;;;4950387;28;20069;-90
2022/01/27 10:04:46;;;;;;;17.30;7.18;;;8.50;95.10;;;;;;4963064;28;20336;-89
2022/01/27 10:07:15;;;;;;;16.88;7.43;;;8.50;95.10;;;;;;4970973;28;20436;-89
2022/01/27 10:10:05;;;;;;;13.67;6.47;;;8.50;95.10;;;;;;4965605;28;20031;-89
2022/01/27 10:12:54;;;;;;;15.90;6.60;;;8.50;95.20;;;;;;4978366;28;20105;-89
2022/01/27 10:15:23;;;;;;;19.52;7.28;;;8.50;95.20;;;;;;4945764;28;21091;-89
2022/01/27 10:18:08;;;;;;;16.00;7.60;;;8.60;95.40;;;;;;4992501;28;20039;-88
2022/01/27 10:20:36;;;;;;;17.65;6.80;;;8.60;95.30;;;;;;4962126;28;20122;-89
2022/01/27 10:23:23;;;;;;;16.77;6.37;;;8.60;95.40;;;;;;4960375;28;20038;-89
2022/01/27 10:25:53;;;;;;;16.45;6.80;;;8.60;95.50;;;;;;4983284;28;20026;-89
2022/01/27 10:28:41;;;;;;;16.20;7.45;;;8.70;95.60;;;;;;4976590;28;20031;-87
2022/01/27 10:31:19;;;;;;;16.98;6.35;;;8.70;95.60;;;;;;4990977;28;20295;-88
2022/01/27 10:33:49;;;;;;;12.77;5.57;;;8.70;95.60;;;;;;4993495;28;20034;-88
2022/01/27 10:36:14;;;;;;;13.37;5.97;;;8.80;95.80;;;;;;4987606;28;20791;-91
2022/01/27 10:38:40;;;;;;;14.43;6.25;;;8.80;95.80;;;;;;4992547;28;20030;-88
2022/01/27 10:41:07;;;;;;;13.75;5.88;;;8.90;95.90;;;;;;4945539;28;20403;-89
2022/01/27 10:43:34;;;;;;;12.27;5.10;;;8.90;95.90;;;;;;4978125;28;20551;-89
2022/01/27 10:46:23;;;;;;;12.95;5.57;;;8.90;96.00;;;;;;4956102;28;20514;-88
2022/01/27 10:49:09;;;;;;;12.38;5.65;;;8.90;95.90;;;;;;4976082;28;20146;-88
2022/01/27 10:51:49;;;;;;;11.88;5.53;;;9.00;95.90;;;;;;4971907;28;20613;-87
2022/01/27 10:54:34;;;;;;;13.10;5.90;;;9.00;95.90;;;;;;4996634;28;20026;-87
2022/01/27 10:57:02;;;;;;;11.10;5.20;;;9.00;95.90;;;;;;4971893;28;20034;-87
2022/01/27 10:59:32;;;;;;;11.98;6.05;;;9.00;95.90;;;;;;4951365;28;20057;-87
2022/01/27 11:01:59;;;;;;;9.93;4.78;;;9.10;95.90;;;;;;4955273;28;20034;-87
2022/01/27 11:04:34;;;;;;;11.60;5.82;;;9.10;96.00;;;;;;4961270;28;20185;-90
2022/01/27 11:07:02;;;;;;;10.30;5.18;;;9.10;96.00;;;;;;4946332;28;20038;-87
2022/01/27 11:09:34;;;;;;;10.33;5.10;;;9.10;96.00;;;;;;4989502;28;20112;-87
2022/01/27 11:12:03;;;;;;;11.57;5.63;;;9.10;96.00;;;;;;4979749;28;20104;-88
2022/01/27 11:14:29;;;;;;;8.65;4.57;;;9.20;96.10;;;;;;4957044;28;20070;-89
2022/01/27 11:16:57;;;;;;;9.63;4.20;;;9.20;96.10;;;;;;4961107;28;20725;-88
2022/01/27 11:22:41;;;;;;;12.02;4.75;;;9.20;96.20;;;;;;4989724;28;20397;-87
2022/01/27 11:25:49;;;;;;;8.98;4.70;;;9.30;96.20;;;;;;4956786;28;20546;-90
2022/01/27 11:27:43;;;;;;;12.15;5.25;;;9.30;96.20;;;;;;4979389;28;20109;-86
2022/01/27 11:30:16;;;;;;;11.33;5.20;;;9.30;96.20;;;;;;4943772;28;20431;-86
2022/01/27 11:32:48;;;;;;;9.32;4.15;;;9.30;96.20;;;;;;4984903;28;20027;-87
2022/01/27 11:35:27;;;;;;;9.70;4.43;;;9.30;96.20;;;;;;4971123;28;20022;-87
2022/01/27 11:38:03;;;;;;;8.70;4.18;;;9.40;96.20;;;;;;4976066;28;20419;-87
2022/01/27 11:40:44;;;;;;;10.32;5.32;;;9.40;96.30;;;;;;4960743;28;20089;-87
2022/01/27 11:43:14;;;;;;;8.73;4.33;;;9.40;96.20;;;;;;4966952;28;20034;-88
2022/01/27 11:45:41;;;;;;;11.25;4.90;;;9.40;96.30;;;;;;4953678;28;20269;-87
2022/01/27 11:48:14;;;;;;;7.72;4.18;;;9.40;96.30;;;;;;4969039;28;20755;-86
2022/01/27 11:51:10;;;;;;;8.52;4.28;;;9.40;96.30;;;;;;4993327;28;20480;-89
2022/01/27 11:53:40;;;;;;;9.10;4.78;;;9.40;96.30;;;;;;4975511;28;20042;-87
2022/01/27 11:56:08;;;;;;;7.63;3.97;;;9.40;96.30;;;;;;4959057;28;20030;-90
2022/01/27 11:58:48;;;;;;;9.68;4.32;;;9.50;96.40;;;;;;4981369;28;20158;-88
2022/01/27 12:01:22;;;;;;;7.55;4.45;;;9.50;96.40;;;;;;4941803;28;20713;-89
2022/01/27 12:04:06;;;;;;;7.63;3.97;;;9.50;96.50;;;;;;4980214;28;20439;-87
2022/01/27 12:06:50;;;;;;;7.30;3.67;;;9.50;96.50;;;;;;4971940;28;20038;-88
2022/01/27 12:09:19;;;;;;;7.43;4.00;;;9.60;96.50;;;;;;4983509;28;20022;-87
2022/01/27 12:12:25;;;;;;;7.93;4.28;;;9.60;96.50;;;;;;4970159;28;20023;-88
2022/01/27 12:15:00;;;;;;;7.68;4.30;;;9.60;96.50;;;;;;5003511;28;20030;-86
2022/01/27 12:17:27;;;;;;;8.35;4.18;;;9.70;96.60;;;;;;4946046;28;20109;-88
2022/01/27 12:20:11;;;;;;;6.28;3.83;;;9.70;96.60;;;;;;4950329;28;20566;-86
2022/01/27 12:22:40;;;;;;;8.03;3.60;;;9.70;96.60;;;;;;5002555;28;20355;-87
2022/01/27 12:25:06;;;;;;;6.10;3.35;;;9.70;96.70;;;;;;4993681;28;20023;-86
2022/01/27 12:27:32;;;;;;;6.60;3.90;;;9.80;96.80;;;;;;4988859;28;20022;-88
2022/01/27 12:30:00;;;;;;;7.55;3.72;;;9.80;96.80;;;;;;4957361;28;20392;-86
2022/01/27 12:32:31;;;;;;;7.00;3.75;;;9.80;96.90;;;;;;4982338;28;20042;-88
2022/01/27 12:35:08;;;;;;;7.10;4.13;;;9.80;96.90;;;;;;4982580;28;20035;-87
2022/01/27 12:37:35;;;;;;;6.45;4.00;;;9.90;96.90;;;;;;4978400;28;20027;-86
2022/01/27 12:40:06;;;;;;;6.97;3.80;;;9.90;96.90;;;;;;4980949;28;20097;-86
2022/01/27 12:42:39;;;;;;;6.30;3.80;;;9.90;96.90;;;;;;4982395;28;20065;-88
2022/01/27 12:45:09;;;;;;;5.93;3.40;;;10.00;96.90;;;;;;4965578;28;20023;-88
2022/01/27 12:47:39;;;;;;;6.33;3.10;;;10.00;96.90;;;;;;4980507;28;20110;-86
2022/01/27 12:50:12;;;;;;;6.53;3.42;;;10.00;96.90;;;;;;4973422;28;20033;-87
2022/01/27 12:52:42;;;;;;;4.63;2.70;;;10.10;96.90;;;;;;4982640;28;20072;-87
2022/01/27 12:55:12;;;;;;;5.45;2.83;;;10.10;96.90;;;;;;4963509;28;20393;-90
2022/01/27 12:57:40;;;;;;;4.35;3.00;;;10.10;97.20;;;;;;4960473;28;20243;-86
2022/01/27 13:00:08;;;;;;;4.77;2.60;;;10.20;96.90;;;;;;4968235;28;20106;-86
2022/01/27 13:02:34;;;;;;;6.50;3.72;;;10.20;96.90;;;;;;4967239;28;20081;-88
2022/01/27 13:05:01;;;;;;;5.15;2.90;;;10.20;96.90;;;;;;4958685;28;20114;-87
2022/01/27 13:07:28;;;;;;;4.20;2.60;;;10.20;96.90;;;;;;4969984;28;20247;-86
2022/01/27 13:09:57;;;;;;;4.07;2.40;;;10.30;97.00;;;;;;4964449;28;20026;-87
2022/01/27 13:12:26;;;;;;;4.18;2.50;;;10.30;97.10;;;;;;4996600;28;20381;-86
2022/01/27 13:15:07;;;;;;;3.83;2.50;;;10.30;97.10;;;;;;4963265;28;20046;-88
2022/01/27 13:17:41;;;;;;;3.90;2.42;;;10.30;97.00;;;;;;4965592;28;20339;-87
2022/01/27 13:20:24;;;;;;;4.13;2.13;;;10.40;97.00;;;;;;4960813;28;20041;-89
2022/01/27 13:23:04;;;;;;;5.23;2.70;;;10.40;96.90;;;;;;4953541;28;20085;-88
2022/01/27 13:25:48;;;;;;;4.60;2.53;;;10.40;96.90;;;;;;4963275;28;20488;-86
2022/01/27 13:28:22;;;;;;;4.97;2.90;;;10.40;96.80;;;;;;4968156;28;20320;-87
2022/01/27 13:30:50;;;;;;;4.05;2.50;;;10.40;97.20;;;;;;4984865;28;20026;-85
2022/01/27 13:33:18;;;;;;;5.65;2.60;;;10.40;96.90;;;;;;4974656;28;20061;-88
2022/01/27 13:35:45;;;;;;;4.90;2.67;;;10.50;96.90;;;;;;4941757;28;20035;-88
2022/01/27 13:38:23;;;;;;;3.47;2.00;;;10.40;96.80;;;;;;4939744;28;20031;-87
2022/01/27 13:43:45;;;;;;;3.90;2.45;;;10.50;96.90;;;;;;4980266;28;20037;-87
2022/01/27 13:46:31;;;;;;;3.53;2.50;;;10.50;96.80;;;;;;4976107;28;20189;-88
2022/01/27 13:49:05;;;;;;;3.77;2.50;;;10.50;96.90;;;;;;4994313;28;20031;-87